Time;durP1;ratioP1;P1;durP2;ratioP2;P2;SDS_P1;SDS_P2;PMS_P1;PMS_P2;Temp;Humidity;BMP_temperature;BMP_pressure;BME280_temperature;BME280_humidity;BME280_pressure;Samples;Min_cycle;Max_cycle;Signal;HPM_P1;HPM_P2
2022/02/13 00:00:09;;;;;;;6.80;3.58;;;3.20;99.90;;;;;;5035411;28;20021;-36
2022/02/13 00:02:36;;;;;;;7.70;3.35;;;3.20;99.90;;;;;;5032679;28;20033;-37
2022/02/13 00:05:01;;;;;;;9.00;3.45;;;3.20;99.90;;;;;;5032206;28;20097;-36
2022/02/13 00:07:27;;;;;;;7.85;3.60;;;3.10;99.90;;;;;;5030180;28;20100;-38
2022/02/13 00:09:53;;;;;;;10.18;4.15;;;3.20;99.90;;;;;;5022846;28;20033;-38
2022/02/13 00:12:18;;;;;;;7.18;3.53;;;3.20;99.90;;;;;;5030199;28;20104;-37
2022/02/13 00:14:45;;;;;;;8.60;3.83;;;3.10;99.90;;;;;;5024841;28;20100;-36
2022/02/13 00:17:10;;;;;;;7.63;3.45;;;3.10;99.90;;;;;;5031443;28;20409;-38
2022/02/13 00:19:36;;;;;;;10.38;3.60;;;3.10;99.90;;;;;;5025030;28;20029;-37
2022/02/13 00:22:02;;;;;;;7.55;3.95;;;3.10;99.90;;;;;;5012296;28;20451;-37
2022/02/13 00:24:27;;;;;;;8.32;3.75;;;3.10;99.90;;;;;;5012499;28;20032;-52
2022/02/13 00:26:53;;;;;;;7.38;3.55;;;3.00;99.90;;;;;;5013375;28;20054;-38
2022/02/13 00:29:19;;;;;;;8.57;3.42;;;3.00;99.90;;;;;;5013179;28;20030;-37
2022/02/13 00:31:44;;;;;;;9.07;4.28;;;3.00;99.90;;;;;;5023550;28;20432;-38
2022/02/13 00:34:10;;;;;;;16.50;3.75;;;3.00;99.90;;;;;;5015566;28;20058;-39
2022/02/13 00:36:35;;;;;;;7.65;3.50;;;3.00;99.90;;;;;;5025947;28;20026;-36
2022/02/13 00:39:01;;;;;;;10.30;3.83;;;2.90;99.90;;;;;;5035724;28;20018;-37
2022/02/13 00:41:27;;;;;;;9.48;3.63;;;2.90;99.90;;;;;;5035547;28;20021;-37
2022/02/13 00:43:53;;;;;;;14.60;3.63;;;2.90;99.90;;;;;;5029661;28;20036;-51
2022/02/13 00:46:19;;;;;;;4.43;2.80;;;2.90;99.90;;;;;;5030830;28;20029;-38
2022/02/13 00:48:44;;;;;;;8.18;3.45;;;2.90;99.90;;;;;;5032811;28;20092;-44
2022/02/13 00:51:10;;;;;;;17.70;4.15;;;2.90;99.90;;;;;;5034248;28;20425;-36
2022/02/13 00:53:36;;;;;;;8.75;3.83;;;2.90;99.90;;;;;;5021144;28;20041;-36
2022/02/13 00:56:01;;;;;;;11.90;4.28;;;2.80;99.90;;;;;;5026971;28;20470;-37
2022/02/13 00:58:28;;;;;;;11.57;4.00;;;2.90;99.90;;;;;;5030836;28;20036;-36
2022/02/13 01:00:54;;;;;;;5.65;3.25;;;2.90;99.90;;;;;;5031318;28;20038;-37
2022/02/13 01:03:20;;;;;;;9.40;3.90;;;2.80;99.90;;;;;;5030834;28;20059;-37
2022/02/13 01:05:45;;;;;;;7.50;3.80;;;2.80;99.90;;;;;;5029479;28;20037;-38
2022/02/13 01:08:11;;;;;;;10.70;3.88;;;2.80;99.90;;;;;;5028611;28;20113;-57
2022/02/13 01:10:39;;;;;;;15.90;4.22;;;2.80;99.90;;;;;;5025202;28;20053;-36
2022/02/13 01:13:04;;;;;;;8.63;3.85;;;2.80;99.90;;;;;;5035320;28;20022;-37
2022/02/13 01:15:30;;;;;;;11.20;4.43;;;2.90;99.90;;;;;;5034976;28;20079;-37
2022/02/13 01:17:55;;;;;;;10.20;4.28;;;2.90;99.90;;;;;;5033739;28;20427;-38
2022/02/13 01:20:21;;;;;;;13.40;3.90;;;2.90;99.90;;;;;;5033366;28;20041;-37
2022/02/13 01:22:47;;;;;;;11.20;3.92;;;2.90;99.90;;;;;;5020584;28;20041;-40
2022/02/13 01:25:12;;;;;;;17.75;4.20;;;2.90;99.90;;;;;;5035098;28;20025;-37
2022/02/13 01:27:38;;;;;;;8.15;3.80;;;2.90;99.90;;;;;;5034974;28;20350;-41
2022/02/13 01:30:04;;;;;;;15.05;3.78;;;3.00;99.90;;;;;;5034586;28;20099;-37
2022/02/13 01:32:31;;;;;;;9.23;3.90;;;3.00;99.90;;;;;;5034136;28;20047;-37
2022/02/13 01:34:57;;;;;;;10.15;3.78;;;3.00;99.90;;;;;;5033902;28;20024;-38
2022/02/13 01:37:22;;;;;;;6.93;3.65;;;3.10;99.90;;;;;;5034423;28;20021;-38
2022/02/13 01:39:48;;;;;;;11.50;3.90;;;3.00;99.90;;;;;;5034002;28;20064;-65
2022/02/13 01:42:14;;;;;;;6.82;3.90;;;3.00;99.90;;;;;;5017471;28;20034;-37
2022/02/13 01:44:40;;;;;;;8.73;3.47;;;3.00;99.90;;;;;;5032251;28;20033;-37
2022/02/13 01:47:06;;;;;;;11.80;4.68;;;3.00;99.90;;;;;;5020853;28;20532;-38
2022/02/13 01:49:32;;;;;;;11.85;3.53;;;3.10;99.90;;;;;;5033785;28;20470;-37
2022/02/13 01:51:59;;;;;;;8.85;3.47;;;3.10;99.90;;;;;;5033602;28;20105;-39
2022/02/13 01:54:25;;;;;;;6.32;3.60;;;3.10;99.90;;;;;;5033895;28;20022;-49
2022/02/13 01:56:51;;;;;;;12.00;3.72;;;3.10;99.90;;;;;;5030636;28;20045;-38
2022/02/13 01:59:16;;;;;;;7.78;3.50;;;3.10;99.90;;;;;;5014342;28;20026;-37
2022/02/13 02:01:42;;;;;;;8.38;3.55;;;3.10;99.90;;;;;;5014195;28;20049;-37
2022/02/13 02:04:08;;;;;;;6.93;3.67;;;3.10;99.90;;;;;;5017164;28;20037;-40
2022/02/13 02:06:35;;;;;;;6.93;3.67;;;3.10;99.90;;;;;;5034030;28;20025;-38
2022/02/13 02:09:02;;;;;;;8.40;3.40;;;3.10;99.90;;;;;;5033378;28;20033;-38
2022/02/13 02:11:28;;;;;;;10.63;3.92;;;3.00;99.90;;;;;;5032620;28;20028;-38
2022/02/13 02:13:54;;;;;;;14.40;4.43;;;3.00;99.90;;;;;;5033348;28;20018;-38
2022/02/13 02:16:19;;;;;;;8.98;3.85;;;2.90;99.90;;;;;;5031857;28;20401;-37
2022/02/13 02:18:45;;;;;;;7.28;2.83;;;2.90;99.90;;;;;;5033433;28;20455;-36
2022/02/13 02:21:11;;;;;;;7.63;3.05;;;2.90;99.90;;;;;;5016636;28;20045;-38
2022/02/13 02:23:40;;;;;;;8.80;3.85;;;2.80;99.90;;;;;;5013947;28;20022;-38
2022/02/13 02:26:07;;;;;;;9.25;3.35;;;2.80;99.90;;;;;;5013863;28;20025;-37
2022/02/13 02:28:33;;;;;;;6.55;3.17;;;2.80;99.90;;;;;;5014023;28;20487;-39
2022/02/13 02:30:59;;;;;;;5.55;3.38;;;2.80;99.90;;;;;;5028483;28;20026;-37
2022/02/13 02:33:25;;;;;;;9.13;4.00;;;2.80;99.90;;;;;;5030357;28;20060;-37
2022/02/13 02:35:51;;;;;;;7.30;3.35;;;2.80;99.90;;;;;;5013695;28;20022;-37
2022/02/13 02:38:17;;;;;;;6.38;3.28;;;2.80;99.90;;;;;;5013644;28;20550;-38
2022/02/13 02:40:43;;;;;;;7.97;3.90;;;2.80;99.90;;;;;;5013857;28;20029;-55
2022/02/13 02:43:09;;;;;;;9.65;3.85;;;2.70;99.90;;;;;;5013582;28;20478;-37
2022/02/13 02:45:34;;;;;;;12.57;4.28;;;2.70;99.90;;;;;;5022153;28;20036;-37
2022/02/13 02:48:00;;;;;;;6.95;3.13;;;2.70;99.90;;;;;;5031256;28;20042;-37
2022/02/13 02:50:26;;;;;;;8.20;3.67;;;2.60;99.90;;;;;;5033168;28;20056;-39
2022/02/13 02:52:51;;;;;;;10.90;4.35;;;2.60;99.90;;;;;;5020830;28;20533;-36
2022/02/13 02:55:17;;;;;;;6.25;3.47;;;2.60;99.90;;;;;;5013112;28;20052;-37
2022/02/13 02:57:42;;;;;;;8.25;3.95;;;2.60;99.90;;;;;;5014011;28;20022;-39
2022/02/13 03:00:10;;;;;;;8.48;3.42;;;2.60;99.90;;;;;;5023504;28;20030;-36
2022/02/13 03:02:37;;;;;;;15.95;4.38;;;2.60;99.90;;;;;;5012032;28;20022;-36
2022/02/13 03:05:03;;;;;;;15.57;4.55;;;2.60;99.90;;;;;;5013255;28;20530;-38
2022/02/13 03:07:29;;;;;;;14.25;4.28;;;2.60;99.90;;;;;;5013170;28;20030;-38
2022/02/13 03:09:54;;;;;;;6.10;3.03;;;2.60;99.90;;;;;;5020822;28;20030;-38
2022/02/13 03:12:20;;;;;;;13.95;4.55;;;2.50;99.90;;;;;;5024754;28;20049;-37
2022/02/13 03:14:46;;;;;;;5.30;3.35;;;2.60;99.90;;;;;;5031530;28;20093;-38
2022/02/13 03:17:11;;;;;;;11.80;3.45;;;2.50;99.90;;;;;;5032053;28;20393;-38
2022/02/13 03:19:37;;;;;;;9.55;3.67;;;2.50;99.90;;;;;;5032851;28;20100;-36
2022/02/13 03:22:03;;;;;;;8.35;3.42;;;2.50;99.90;;;;;;5032643;28;20037;-38
2022/02/13 03:24:29;;;;;;;6.40;3.35;;;2.50;99.90;;;;;;5032683;28;20025;-38
2022/02/13 03:26:55;;;;;;;7.07;4.10;;;2.40;99.90;;;;;;5016403;28;20509;-62
2022/02/13 03:29:20;;;;;;;10.50;3.80;;;2.40;99.90;;;;;;5012816;28;20101;-39
2022/02/13 03:31:46;;;;;;;7.55;3.28;;;2.50;99.90;;;;;;5021773;28;20014;-49
2022/02/13 03:34:12;;;;;;;8.10;3.63;;;2.50;99.90;;;;;;5032607;28;20021;-36
2022/02/13 03:36:38;;;;;;;12.73;3.40;;;2.40;99.90;;;;;;5031677;28;20449;-37
2022/02/13 03:39:05;;;;;;;5.75;3.30;;;2.50;99.90;;;;;;5032624;28;20026;-37
2022/02/13 03:41:31;;;;;;;10.90;3.35;;;2.50;99.90;;;;;;5031663;28;20026;-38
2022/02/13 03:43:57;;;;;;;6.22;3.00;;;2.50;99.90;;;;;;5012818;28;20025;-38
2022/02/13 03:46:23;;;;;;;7.35;4.40;;;2.50;99.90;;;;;;5027747;28;20026;-38
2022/02/13 03:48:49;;;;;;;6.70;3.50;;;2.50;99.90;;;;;;5032478;28;20129;-36
2022/02/13 03:51:15;;;;;;;7.50;2.95;;;2.50;99.90;;;;;;5025634;28;20022;-35
2022/02/13 03:53:41;;;;;;;8.35;3.20;;;2.50;99.90;;;;;;5012760;28;20022;-36
2022/02/13 03:56:06;;;;;;;12.05;3.22;;;2.40;99.90;;;;;;5025795;28;20104;-38
2022/02/13 03:58:32;;;;;;;7.70;3.00;;;2.40;99.90;;;;;;5032125;28;20105;-37
2022/02/13 04:00:59;;;;;;;6.30;3.40;;;2.40;99.90;;;;;;5030734;28;20112;-37
2022/02/13 04:03:25;;;;;;;10.30;3.33;;;2.30;99.90;;;;;;5031219;28;20039;-38
2022/02/13 04:05:54;;;;;;;6.05;2.97;;;2.30;99.90;;;;;;5030930;28;20091;-37
2022/02/13 04:08:20;;;;;;;19.55;4.32;;;2.40;99.90;;;;;;5034427;28;20025;-38
2022/02/13 04:10:46;;;;;;;12.07;4.22;;;2.40;99.90;;;;;;5030600;28;20029;-43
2022/02/13 04:13:12;;;;;;;10.32;4.57;;;2.40;99.90;;;;;;5016400;28;20018;-46
2022/02/13 04:15:37;;;;;;;6.15;3.10;;;2.30;99.90;;;;;;5024928;28;20029;-38
2022/02/13 04:18:11;;;;;;;8.55;3.70;;;2.40;99.90;;;;;;5035033;28;20029;-37
2022/02/13 04:20:37;;;;;;;5.32;3.03;;;2.40;99.90;;;;;;5036015;28;20124;-35
2022/02/13 04:23:07;;;;;;;5.95;2.92;;;2.40;99.90;;;;;;5034700;28;20073;-36
2022/02/13 04:25:33;;;;;;;7.10;3.17;;;2.40;99.90;;;;;;5035592;28;20029;-37
2022/02/13 04:27:58;;;;;;;7.63;3.03;;;2.40;99.90;;;;;;5035764;28;20505;-37
2022/02/13 04:30:24;;;;;;;7.88;3.42;;;2.40;99.90;;;;;;5035489;28;20068;-36
2022/02/13 04:32:50;;;;;;;8.82;3.40;;;2.40;99.90;;;;;;5035530;28;20026;-53
2022/02/13 04:35:15;;;;;;;9.60;3.38;;;2.30;99.90;;;;;;5028615;28;20028;-37
2022/02/13 04:37:41;;;;;;;14.82;3.95;;;2.40;99.90;;;;;;5050625;28;20029;-36
2022/02/13 04:40:07;;;;;;;11.18;3.15;;;2.30;99.90;;;;;;5035636;28;20025;-36
2022/02/13 04:42:33;;;;;;;7.10;3.22;;;2.40;99.90;;;;;;5035672;28;20028;-38
2022/02/13 04:44:59;;;;;;;8.65;3.45;;;2.30;99.90;;;;;;5029730;28;20022;-37
2022/02/13 04:47:24;;;;;;;8.77;3.60;;;2.30;99.90;;;;;;5015955;28;20489;-42
2022/02/13 04:49:50;;;;;;;8.20;3.20;;;2.20;99.90;;;;;;5016670;28;20034;-37
2022/02/13 04:52:17;;;;;;;6.80;3.38;;;2.30;99.90;;;;;;5035751;28;20032;-37
2022/02/13 04:54:42;;;;;;;10.77;4.40;;;2.30;99.90;;;;;;5028377;28;20018;-37
2022/02/13 04:57:08;;;;;;;3.88;2.60;;;2.30;99.90;;;;;;5015627;28;20026;-37
2022/02/13 04:59:37;;;;;;;9.75;3.85;;;2.30;99.90;;;;;;5015501;28;20030;-38
2022/02/13 05:02:03;;;;;;;9.32;2.72;;;2.30;99.90;;;;;;5015810;28;20045;-43
2022/02/13 05:04:29;;;;;;;7.63;3.65;;;2.30;99.90;;;;;;5019441;28;20037;-35
2022/02/13 05:06:54;;;;;;;8.65;3.72;;;2.30;99.90;;;;;;5035455;28;20025;-38
2022/02/13 05:09:20;;;;;;;8.02;3.00;;;2.30;99.90;;;;;;5033997;28;20032;-39
2022/02/13 05:11:45;;;;;;;10.07;3.67;;;2.20;99.90;;;;;;5015810;28;20058;-39
2022/02/13 05:14:11;;;;;;;6.57;3.15;;;2.20;99.90;;;;;;5018288;28;20068;-38
2022/02/13 05:16:37;;;;;;;5.78;3.58;;;2.20;99.90;;;;;;5035110;28;20021;-37
2022/02/13 05:19:02;;;;;;;11.07;3.90;;;2.20;99.90;;;;;;5033591;28;20036;-38
2022/02/13 05:21:28;;;;;;;6.68;3.83;;;2.30;99.90;;;;;;5034700;28;20533;-36
2022/02/13 05:23:53;;;;;;;4.53;2.92;;;2.30;99.90;;;;;;5033930;28;20025;-36
2022/02/13 05:27:19;;;;;;;;;;;;;;;;;;;;;
2022/02/13 05:29:35;;;;;;;11.20;3.40;;;2.30;99.90;;;;;;5013742;28;20438;-38
2022/02/13 05:32:03;;;;;;;5.45;3.15;;;2.30;99.90;;;;;;5014926;28;20497;-38
2022/02/13 05:34:29;;;;;;;6.15;3.42;;;2.30;99.90;;;;;;5015164;28;20080;-38
2022/02/13 05:36:55;;;;;;;10.27;3.22;;;2.30;99.90;;;;;;5014905;28;20022;-38
2022/02/13 05:39:20;;;;;;;7.53;2.85;;;2.40;99.90;;;;;;5014710;28;20041;-37
2022/02/13 05:41:46;;;;;;;8.15;4.03;;;2.40;99.90;;;;;;5014810;28;20057;-36
2022/02/13 05:44:12;;;;;;;5.10;3.75;;;2.40;99.90;;;;;;5015054;28;20048;-39
2022/02/13 05:46:38;;;;;;;6.85;2.95;;;2.50;99.90;;;;;;5031516;28;20498;-46
2022/02/13 05:49:03;;;;;;;14.35;3.40;;;2.50;99.90;;;;;;5034586;28;20555;-42
2022/02/13 05:51:29;;;;;;;13.77;3.25;;;2.50;99.90;;;;;;5034372;28;20106;-38
2022/02/13 05:53:56;;;;;;;10.30;3.25;;;2.40;99.90;;;;;;5033920;28;20367;-38
2022/02/13 05:56:44;;;;;;;8.75;3.40;;;2.50;99.90;;;;;;5034265;28;20030;-36
2022/02/13 05:59:11;;;;;;;7.53;3.90;;;2.50;99.90;;;;;;5034355;28;20482;-38
2022/02/13 06:01:36;;;;;;;6.30;3.45;;;2.50;99.90;;;;;;5034195;28;20029;-47
2022/02/13 06:04:02;;;;;;;13.63;3.30;;;2.50;99.90;;;;;;5033298;28;20116;-38
2022/02/13 06:06:28;;;;;;;12.02;3.28;;;2.60;99.90;;;;;;5029781;28;20030;-38
2022/02/13 06:08:53;;;;;;;6.75;2.97;;;2.60;99.90;;;;;;5014181;28;20502;-37
2022/02/13 06:11:19;;;;;;;8.23;3.40;;;2.60;99.90;;;;;;5014176;28;20422;-38
2022/02/13 06:13:44;;;;;;;5.40;3.60;;;2.60;99.90;;;;;;5015575;28;20105;-36
2022/02/13 06:16:10;;;;;;;10.25;4.22;;;2.60;99.90;;;;;;5014038;28;20022;-38
2022/02/13 06:18:36;;;;;;;11.07;3.90;;;2.60;99.90;;;;;;5014106;28;20025;-36
2022/02/13 06:21:02;;;;;;;9.45;3.42;;;2.60;99.90;;;;;;5014276;28;20403;-37
2022/02/13 06:23:28;;;;;;;5.55;3.50;;;2.60;99.90;;;;;;5013935;28;20390;-39
2022/02/13 06:25:54;;;;;;;12.98;3.00;;;2.60;99.90;;;;;;5015730;28;20109;-38
2022/02/13 06:28:20;;;;;;;7.03;3.10;;;2.70;99.90;;;;;;5033646;28;20566;-38
2022/02/13 06:30:46;;;;;;;11.10;3.63;;;2.70;99.90;;;;;;5033142;28;20036;-36
2022/02/13 06:33:14;;;;;;;7.00;3.53;;;2.60;99.90;;;;;;5032426;28;20482;-37
2022/02/13 06:35:40;;;;;;;6.55;2.88;;;2.70;99.90;;;;;;5033905;28;20441;-39
2022/02/13 06:38:10;;;;;;;6.20;3.42;;;2.70;99.90;;;;;;5033461;28;20044;-37
2022/02/13 06:40:36;;;;;;;9.57;3.83;;;2.70;99.90;;;;;;5033746;28;20520;-37
2022/02/13 06:43:20;;;;;;;10.48;4.22;;;2.80;99.90;;;;;;5032715;28;20033;-37
2022/02/13 06:45:46;;;;;;;6.68;3.17;;;2.80;99.90;;;;;;5031824;28;20061;-38
2022/02/13 06:48:11;;;;;;;9.25;3.80;;;2.80;99.90;;;;;;5033180;28;20060;-37
2022/02/13 06:50:37;;;;;;;7.90;3.75;;;2.80;99.90;;;;;;5033219;28;20026;-37
2022/02/13 06:53:04;;;;;;;6.85;2.88;;;2.80;99.90;;;;;;5032989;28;20486;-38
2022/02/13 06:55:29;;;;;;;5.75;3.60;;;2.90;99.90;;;;;;5031987;28;20021;-37
2022/02/13 06:57:55;;;;;;;8.50;3.20;;;2.90;99.90;;;;;;5032628;28;20041;-39
2022/02/13 07:00:40;;;;;;;6.22;3.47;;;2.90;99.90;;;;;;5033040;28;20073;-47
2022/02/13 07:03:07;;;;;;;7.03;3.00;;;2.90;99.90;;;;;;5013415;28;20026;-39
2022/02/13 07:05:33;;;;;;;7.22;3.70;;;2.90;99.90;;;;;;5013718;28;20022;-44
2022/02/13 07:07:58;;;;;;;11.85;3.53;;;2.90;99.90;;;;;;5013116;28;20080;-42
2022/02/13 07:10:24;;;;;;;7.45;3.03;;;2.90;99.90;;;;;;5013775;28;20045;-35
2022/02/13 07:12:50;;;;;;;12.68;3.58;;;2.90;99.90;;;;;;5013234;28;20025;-36
2022/02/13 07:15:15;;;;;;;6.28;3.25;;;3.00;99.90;;;;;;5013511;28;20029;-40
2022/02/13 07:17:42;;;;;;;7.30;2.75;;;3.00;99.90;;;;;;5013170;28;20030;-37
2022/02/13 07:20:07;;;;;;;8.40;3.60;;;3.00;99.90;;;;;;5012880;28;20172;-37
2022/02/13 07:22:34;;;;;;;6.30;3.08;;;3.10;99.90;;;;;;5013857;28;20069;-37
2022/02/13 07:24:59;;;;;;;8.40;3.10;;;3.00;99.90;;;;;;5013026;28;20506;-39
2022/02/13 07:27:25;;;;;;;4.68;2.90;;;3.10;99.90;;;;;;5013027;28;20025;-37
2022/02/13 07:29:50;;;;;;;8.55;3.50;;;3.10;99.90;;;;;;5013076;28;20037;-37
2022/02/13 07:32:16;;;;;;;6.95;3.40;;;3.20;99.90;;;;;;5029127;28;20075;-37
2022/02/13 07:34:42;;;;;;;5.70;3.33;;;3.20;99.90;;;;;;5032948;28;20108;-38
2022/02/13 07:37:07;;;;;;;4.38;2.90;;;3.30;99.90;;;;;;5032688;28;20026;-38
2022/02/13 07:39:35;;;;;;;7.43;3.22;;;3.20;99.90;;;;;;5032529;28;20452;-37
2022/02/13 07:42:02;;;;;;;;;;;3.20;99.90;;;;;;5026105;28;20079;-38
2022/02/13 07:44:28;;;;;;;9.85;3.10;;;3.30;99.90;;;;;;5036730;28;19909;-38
2022/02/13 07:46:54;;;;;;;6.15;2.90;;;3.30;99.90;;;;;;5036652;28;20029;-37
2022/02/13 07:49:20;;;;;;;5.93;3.45;;;3.30;99.90;;;;;;5036584;28;20037;-37
2022/02/13 07:51:46;;;;;;;8.95;3.53;;;3.30;99.90;;;;;;5036156;28;20086;-39
2022/02/13 07:54:12;;;;;;;8.80;3.50;;;3.30;99.90;;;;;;5036561;28;20022;-37
2022/02/13 07:56:37;;;;;;;3.60;2.92;;;3.40;99.90;;;;;;5036769;28;20470;-38
2022/02/13 07:59:03;;;;;;;9.13;3.35;;;3.40;99.90;;;;;;5036451;28;20039;-39
2022/02/13 08:01:29;;;;;;;5.30;3.03;;;3.40;99.90;;;;;;5033607;28;20482;-40
2022/02/13 08:03:55;;;;;;;6.88;3.13;;;3.40;99.90;;;;;;5016624;28;20037;-42
2022/02/13 08:06:21;;;;;;;8.65;3.30;;;3.50;99.90;;;;;;5016526;28;20100;-45
2022/02/13 08:08:48;;;;;;;6.90;3.08;;;3.50;99.90;;;;;;5028773;28;20038;-37
2022/02/13 08:11:16;;;;;;;8.55;3.38;;;3.50;99.90;;;;;;5027109;28;20018;-38
2022/02/13 08:13:42;;;;;;;;;;;3.50;99.90;;;;;;5015565;28;20448;-39
2022/02/13 08:16:08;;;;;;;5.00;3.42;;;3.50;99.90;;;;;;5016386;28;19948;-38
2022/02/13 08:18:34;;;;;;;9.05;3.08;;;3.50;99.90;;;;;;5026509;28;20029;-39
2022/02/13 08:21:03;;;;;;;11.65;4.22;;;3.50;99.90;;;;;;5035776;28;20095;-38
2022/02/13 08:23:28;;;;;;;7.55;3.10;;;3.60;99.90;;;;;;5034696;28;20029;-49
2022/02/13 08:25:54;;;;;;;5.55;3.28;;;3.70;99.90;;;;;;5036041;28;20099;-36
2022/02/13 08:28:20;;;;;;;7.82;3.30;;;3.70;99.90;;;;;;5016804;28;20026;-37
2022/02/13 08:30:46;;;;;;;6.93;3.60;;;3.80;99.90;;;;;;5016150;28;20074;-37
2022/02/13 08:33:12;;;;;;;12.60;4.80;;;3.90;99.90;;;;;;5020283;28;20060;-38
2022/02/13 08:35:38;;;;;;;4.70;2.85;;;3.90;99.90;;;;;;5035860;28;20056;-38
2022/02/13 08:38:05;;;;;;;8.90;3.03;;;4.00;99.90;;;;;;5035714;28;20515;-38
2022/02/13 08:40:32;;;;;;;6.63;3.50;;;4.00;99.90;;;;;;5035003;28;20091;-54
2022/02/13 08:42:59;;;;;;;9.73;3.17;;;4.00;99.90;;;;;;5032884;28;20030;-38
2022/02/13 08:45:29;;;;;;;7.15;3.22;;;4.10;99.90;;;;;;5023548;28;20030;-38
2022/02/13 08:47:56;;;;;;;11.40;4.03;;;4.10;99.90;;;;;;5035067;28;20370;-38
2022/02/13 08:50:21;;;;;;;5.13;3.70;;;4.10;99.90;;;;;;5035512;28;20026;-38
2022/02/13 08:52:47;;;;;;;8.70;3.78;;;4.20;99.90;;;;;;5027164;28;20028;-38
2022/02/13 08:55:14;;;;;;;5.95;3.50;;;4.20;99.90;;;;;;5018035;28;20030;-37
2022/02/13 08:57:40;;;;;;;5.50;2.95;;;4.30;99.90;;;;;;5015778;28;20080;-37
2022/02/13 09:00:07;;;;;;;6.85;3.65;;;4.30;99.90;;;;;;5023515;28;20502;-38
2022/02/13 09:02:33;;;;;;;11.55;5.20;;;4.30;99.90;;;;;;5034364;28;20525;-47
2022/02/13 09:04:59;;;;;;;7.25;3.63;;;4.30;99.90;;;;;;5033892;28;20460;-36
2022/02/13 09:07:25;;;;;;;5.38;3.38;;;4.40;99.90;;;;;;5035138;28;20032;-37
2022/02/13 09:09:50;;;;;;;8.75;4.47;;;4.40;99.90;;;;;;5035360;28;20022;-38
2022/02/13 09:12:19;;;;;;;8.15;4.35;;;4.50;99.90;;;;;;5034839;28;20049;-43
2022/02/13 09:14:48;;;;;;;10.35;3.67;;;4.60;99.90;;;;;;5015505;28;20018;-36
2022/02/13 09:17:14;;;;;;;8.02;3.60;;;4.60;99.90;;;;;;5023256;28;20033;-37
2022/02/13 09:19:40;;;;;;;18.90;8.07;;;4.60;99.90;;;;;;5033547;28;20080;-37
2022/02/13 09:22:07;;;;;;;11.25;3.92;;;4.70;99.90;;;;;;5033311;28;20073;-36
2022/02/13 09:24:34;;;;;;;11.98;4.07;;;4.70;99.90;;;;;;5034810;28;20025;-38
2022/02/13 09:26:59;;;;;;;6.40;3.53;;;4.80;99.90;;;;;;5034227;28;20022;-38
2022/02/13 09:29:25;;;;;;;9.00;4.63;;;4.70;99.90;;;;;;5020339;28;20040;-58
2022/02/13 09:31:51;;;;;;;19.38;6.85;;;4.80;99.90;;;;;;5015043;28;20022;-38
2022/02/13 09:34:23;;;;;;;12.30;6.00;;;4.80;99.90;;;;;;5023880;28;20022;-36
2022/02/13 09:36:48;;;;;;;11.55;5.07;;;4.90;99.90;;;;;;5034978;28;20117;-36
2022/02/13 09:39:14;;;;;;;15.75;7.20;;;4.90;99.90;;;;;;5034745;28;20045;-37
2022/02/13 09:41:40;;;;;;;10.60;4.70;;;5.10;99.90;;;;;;5032099;28;20038;-38
2022/02/13 09:44:08;;;;;;;9.30;4.22;;;5.20;99.90;;;;;;5014998;28;20180;-37
2022/02/13 09:46:35;;;;;;;8.88;4.75;;;5.40;99.90;;;;;;5014623;28;20045;-36
2022/02/13 09:49:01;;;;;;;16.83;8.10;;;5.50;99.90;;;;;;5032725;28;20044;-36
2022/02/13 09:51:29;;;;;;;13.60;4.45;;;5.70;99.90;;;;;;5033618;28;20457;-39
2022/02/13 09:53:55;;;;;;;17.77;6.35;;;5.70;99.90;;;;;;5018603;28;20076;-36
2022/02/13 09:56:21;;;;;;;16.73;7.82;;;5.70;99.90;;;;;;5030109;28;20025;-37
2022/02/13 09:58:46;;;;;;;5.55;3.78;;;5.70;99.90;;;;;;5028062;28;20032;-37
2022/02/13 10:01:12;;;;;;;5.75;3.85;;;5.70;99.90;;;;;;5034271;28;20457;-37
2022/02/13 10:03:43;;;;;;;10.65;5.35;;;5.70;99.90;;;;;;5014852;28;20030;-66
2022/02/13 10:06:11;;;;;;;5.97;3.67;;;5.70;99.90;;;;;;5014406;28;20080;-66
2022/02/13 10:08:43;;;;;;;11.82;4.18;;;5.80;99.90;;;;;;5025807;28;20033;-38
2022/02/13 10:11:23;;;;;;;9.43;5.18;;;5.90;99.90;;;;;;5033926;28;20032;-37
2022/02/13 10:14:15;;;;;;;9.18;4.65;;;5.90;99.90;;;;;;5030852;28;20022;-61
2022/02/13 10:16:43;;;;;;;18.83;7.57;;;5.90;99.90;;;;;;5026143;28;20551;-37
2022/02/13 10:19:13;;;;;;;12.43;5.88;;;6.00;99.90;;;;;;5013476;28;20026;-36
2022/02/13 10:21:57;;;;;;;6.35;4.68;;;5.90;99.90;;;;;;5021653;28;20488;-36
2022/02/13 10:24:29;;;;;;;10.65;4.60;;;6.00;99.90;;;;;;5027578;28;20029;-38
2022/02/13 10:27:14;;;;;;;11.38;4.55;;;6.10;99.90;;;;;;5015322;28;20029;-38
2022/02/13 10:29:43;;;;;;;9.90;6.13;;;6.10;99.90;;;;;;5023090;28;20029;-36
2022/02/13 10:32:11;;;;;;;6.93;3.60;;;6.30;99.90;;;;;;5033512;28;20033;-38
2022/02/13 10:34:38;;;;;;;10.90;5.32;;;6.30;99.90;;;;;;5033456;28;20108;-38
2022/02/13 10:37:04;;;;;;;9.18;4.50;;;6.40;99.90;;;;;;5032653;28;20021;-37
2022/02/13 10:39:30;;;;;;;12.88;4.68;;;6.40;99.90;;;;;;5027616;28;20513;-37
2022/02/13 10:41:56;;;;;;;9.20;4.43;;;6.40;99.90;;;;;;5033647;28;20025;-45
2022/02/13 10:44:30;;;;;;;11.77;4.15;;;6.50;99.90;;;;;;5033156;28;20098;-42
2022/02/13 10:46:56;;;;;;;10.20;5.18;;;6.60;99.90;;;;;;5031880;28;20030;-41
2022/02/13 10:49:22;;;;;;;16.65;6.07;;;6.70;99.90;;;;;;5033465;28;20053;-38
2022/02/13 10:51:49;;;;;;;8.15;4.90;;;6.80;99.90;;;;;;5027496;28;20041;-55
2022/02/13 10:54:15;;;;;;;9.13;4.95;;;6.80;99.90;;;;;;5027631;28;20064;-37
2022/02/13 10:56:41;;;;;;;12.93;6.22;;;6.90;99.90;;;;;;5030913;28;20461;-38
2022/02/13 10:59:12;;;;;;;22.83;8.95;;;6.90;99.90;;;;;;5031111;28;20130;-39
2022/02/13 11:01:38;;;;;;;6.38;4.22;;;7.00;99.90;;;;;;5030086;28;20465;-37
2022/02/13 11:04:04;;;;;;;7.70;3.78;;;7.00;99.90;;;;;;5023365;28;20034;-39
2022/02/13 11:06:35;;;;;;;9.75;4.75;;;7.00;99.90;;;;;;5013770;28;20455;-39
2022/02/13 11:09:29;;;;;;;7.43;3.55;;;7.10;99.90;;;;;;5018249;28;20119;-37
2022/02/13 11:11:56;;;;;;;11.85;5.93;;;7.20;99.90;;;;;;5029901;28;20064;-38
2022/02/13 11:14:40;;;;;;;9.27;4.25;;;7.20;99.90;;;;;;5013117;28;20075;-38
2022/02/13 11:17:07;;;;;;;10.93;5.03;;;7.20;99.90;;;;;;5013438;28;20057;-39
2022/02/13 11:19:38;;;;;;;14.47;6.13;;;7.30;99.90;;;;;;5020256;28;20026;-38
2022/02/13 11:22:05;;;;;;;11.38;4.60;;;7.30;99.90;;;;;;5032582;28;20409;-37
2022/02/13 11:24:35;;;;;;;6.30;3.53;;;7.40;99.90;;;;;;5029534;28;20104;-38
2022/02/13 11:27:02;;;;;;;19.27;7.78;;;7.50;99.90;;;;;;5030710;28;20036;-37
2022/02/13 11:29:56;;;;;;;15.52;5.75;;;7.60;99.90;;;;;;5031573;28;20113;-38
2022/02/13 11:32:45;;;;;;;9.65;4.38;;;7.70;99.90;;;;;;5032235;28;20025;-37
2022/02/13 11:35:12;;;;;;;8.70;3.30;;;7.90;99.90;;;;;;5031557;28;20485;-34
2022/02/13 11:37:42;;;;;;;5.87;3.10;;;7.90;99.90;;;;;;5019537;28;20226;-38
2022/02/13 11:40:28;;;;;;;7.55;4.80;;;8.10;99.90;;;;;;5028966;28;20318;-38
2022/02/13 11:42:53;;;;;;;8.60;3.78;;;8.20;99.90;;;;;;5031614;28;20529;-62
2022/02/13 11:45:20;;;;;;;8.25;4.28;;;8.20;99.90;;;;;;5029091;28;20110;-37
2022/02/13 11:47:46;;;;;;;11.13;4.90;;;8.30;99.90;;;;;;5031787;28;20152;-39
2022/02/13 11:50:15;;;;;;;29.73;10.40;;;8.40;99.90;;;;;;5023824;28;20034;-38
2022/02/13 11:53:02;;;;;;;12.80;6.32;;;8.40;99.90;;;;;;5032725;28;20385;-38
2022/02/13 11:55:32;;;;;;;18.60;8.07;;;8.50;99.90;;;;;;5030708;28;20405;-35
2022/02/13 11:58:08;;;;;;;26.90;11.50;;;8.50;99.90;;;;;;5031273;28;20021;-38
2022/02/13 12:00:44;;;;;;;19.65;8.80;;;8.70;99.90;;;;;;5032526;28;20102;-38
2022/02/13 12:03:20;;;;;;;16.95;7.60;;;8.80;99.90;;;;;;5032063;28;20495;-53
2022/02/13 12:06:03;;;;;;;8.32;4.00;;;8.90;99.90;;;;;;5032407;28;20029;-39
2022/02/13 12:08:29;;;;;;;32.75;14.98;;;8.90;99.90;;;;;;5015713;28;20060;-39
2022/02/13 12:11:09;;;;;;;15.15;6.15;;;9.00;99.90;;;;;;5028611;28;20022;-63
2022/02/13 12:13:36;;;;;;;15.80;6.22;;;9.10;99.90;;;;;;5028017;28;20486;-38
2022/02/13 12:16:05;;;;;;;9.38;3.80;;;9.00;99.90;;;;;;5019819;28;20462;-44
2022/02/13 12:18:31;;;;;;;15.10;6.88;;;9.00;99.90;;;;;;5029324;28;20490;-37
2022/02/13 12:21:02;;;;;;;15.35;10.10;;;9.10;99.90;;;;;;5031246;28;20183;-38
2022/02/13 12:23:29;;;;;;;15.10;5.32;;;9.10;99.90;;;;;;5030295;28;20060;-38
2022/02/13 12:25:55;;;;;;;7.85;5.28;;;9.20;99.90;;;;;;5012515;28;20030;-38
2022/02/13 12:28:21;;;;;;;8.73;4.35;;;9.20;99.90;;;;;;5013264;28;20386;-38
2022/02/13 12:30:53;;;;;;;32.25;14.93;;;9.30;99.90;;;;;;5016270;28;20032;-39
2022/02/13 12:33:22;;;;;;;18.00;8.90;;;9.40;99.90;;;;;;5016354;28;20447;-37
2022/02/13 12:35:49;;;;;;;15.05;7.72;;;9.50;99.90;;;;;;5030366;28;20017;-40
2022/02/13 12:38:14;;;;;;;14.85;9.05;;;9.50;99.90;;;;;;5033488;28;20044;-39
2022/02/13 12:40:44;;;;;;;14.90;5.70;;;9.50;99.90;;;;;;5031750;28;20474;-37
2022/02/13 12:43:11;;;;;;;43.15;16.77;;;9.50;99.90;;;;;;5016131;28;20514;-39
2022/02/13 12:45:38;;;;;;;27.13;12.80;;;9.60;99.90;;;;;;5015849;28;20025;-39
2022/02/13 12:48:06;;;;;;;8.15;4.22;;;9.70;99.90;;;;;;5015728;28;20030;-40
2022/02/13 12:50:33;;;;;;;;;;;9.70;99.90;;;;;;5016174;28;20030;-38
2022/02/13 12:53:00;;;;;;;14.10;4.85;;;9.70;99.90;;;;;;5015644;28;20424;-40
2022/02/13 12:55:27;;;;;;;7.88;4.10;;;9.80;99.90;;;;;;5027436;28;20485;-45